Time;durP1;ratioP1;P1;durP2;ratioP2;P2;SDS_P1;SDS_P2;PMS_P1;PMS_P2;Temp;Humidity;BMP_temperature;BMP_pressure;BME280_temperature;BME280_humidity;BME280_pressure;Samples;Min_cycle;Max_cycle;Signal;HPM_P1;HPM_P2
2022/03/17 00:01:30;;;;;;;27.37;22.93;;;;;;;;;;4999090;28;20199;-57
2022/03/17 00:03:56;;;;;;;25.03;21.57;;;;;;;;;;4994861;28;20223;-57
2022/03/17 00:06:22;;;;;;;25.70;22.63;;;;;;;;;;5000439;28;20205;-57
2022/03/17 00:08:48;;;;;;;25.27;22.70;;;;;;;;;;5000899;28;20565;-57
2022/03/17 00:11:14;;;;;;;23.60;20.90;;;;;;;;;;4997278;28;20193;-57
2022/03/17 00:13:41;;;;;;;25.27;22.30;;;;;;;;;;5000574;28;20197;-57
2022/03/17 00:16:09;;;;;;;25.90;22.97;;;;;;;;;;5006023;28;20201;-57
2022/03/17 00:18:35;;;;;;;25.17;22.47;;;;;;;;;;4995304;28;20242;-57
2022/03/17 00:21:01;;;;;;;26.23;23.23;;;;;;;;;;5003356;28;20284;-57
2022/03/17 00:23:27;;;;;;;25.50;22.87;;;;;;;;;;5004308;28;20185;-57
2022/03/17 00:25:53;;;;;;;26.43;23.37;;;;;;;;;;5000348;28;20248;-57
2022/03/17 00:28:19;;;;;;;25.70;22.80;;;;;;;;;;5003475;28;21087;-57
2022/03/17 00:30:45;;;;;;;25.87;23.00;;;;;;;;;;4992982;28;20196;-57
2022/03/17 00:33:11;;;;;;;24.77;22.23;;;;;;;;;;4995125;28;21459;-57
2022/03/17 00:35:42;;;;;;;24.87;22.27;;;;;;;;;;4995692;28;20185;-57
2022/03/17 00:38:13;;;;;;;24.67;22.10;;;;;;;;;;4997805;28;20259;-57
2022/03/17 00:40:39;;;;;;;25.93;23.30;;;;;;;;;;4997753;28;20191;-57
2022/03/17 00:43:05;;;;;;;25.40;22.57;;;;;;;;;;4994116;28;20319;-58
2022/03/17 00:45:31;;;;;;;26.23;23.50;;;;;;;;;;4990207;28;20194;-56
2022/03/17 00:47:57;;;;;;;25.30;22.70;;;;;;;;;;4991841;28;20207;-57
2022/03/17 00:50:23;;;;;;;26.13;23.33;;;;;;;;;;4998804;28;20197;-57
2022/03/17 00:52:49;;;;;;;28.30;23.53;;;;;;;;;;4998087;28;20280;-57
2022/03/17 00:55:15;;;;;;;25.67;23.00;;;;;;;;;;4996593;28;20197;-57
2022/03/17 00:57:41;;;;;;;25.67;22.77;;;;;;;;;;4995523;28;20197;-57
2022/03/17 01:00:14;;;;;;;26.30;23.50;;;;;;;;;;4994303;28;20192;-57
2022/03/17 01:02:40;;;;;;;25.00;22.43;;;;;;;;;;4996833;28;20243;-57
2022/03/17 01:05:06;;;;;;;25.50;22.87;;;;;;;;;;4991425;28;20217;-57
2022/03/17 01:07:33;;;;;;;26.40;23.57;;;;;;;;;;4995386;28;20279;-57
2022/03/17 01:09:59;;;;;;;27.03;24.07;;;;;;;;;;4999378;28;20185;-57
2022/03/17 01:12:25;;;;;;;25.53;22.90;;;;;;;;;;5004036;28;20196;-56
2022/03/17 01:14:51;;;;;;;25.40;22.80;;;;;;;;;;5003548;28;20189;-57
2022/03/17 01:17:17;;;;;;;27.03;24.13;;;;;;;;;;4997613;28;20639;-56
2022/03/17 01:19:43;;;;;;;26.87;24.03;;;;;;;;;;4999778;28;20709;-57
2022/03/17 01:22:09;;;;;;;27.20;24.33;;;;;;;;;;4996967;28;20197;-57
2022/03/17 01:24:34;;;;;;;26.20;23.43;;;;;;;;;;5002113;28;20224;-57
2022/03/17 01:27:00;;;;;;;28.67;22.97;;;;;;;;;;4998115;28;20201;-57
2022/03/17 01:29:26;;;;;;;25.37;22.67;;;;;;;;;;4999612;28;20298;-57
2022/03/17 01:31:53;;;;;;;29.77;24.43;;;;;;;;;;4987435;28;20274;-57
2022/03/17 01:34:19;;;;;;;26.50;23.80;;;;;;;;;;4981612;28;20770;-57
2022/03/17 01:36:45;;;;;;;26.37;23.47;;;;;;;;;;4990843;28;20633;-57
2022/03/17 01:39:11;;;;;;;26.53;23.73;;;;;;;;;;4995050;28;20205;-57
2022/03/17 01:41:38;;;;;;;27.03;23.60;;;;;;;;;;4995441;28;20217;-57
2022/03/17 01:44:04;;;;;;;26.67;23.87;;;;;;;;;;4994921;28;20710;-57
2022/03/17 01:47:26;;;;;;;27.63;24.73;;;;;;;;;;4983273;28;20783;-57
2022/03/17 01:49:16;;;;;;;26.70;23.90;;;;;;;;;;4991818;28;20209;-57
2022/03/17 01:51:43;;;;;;;27.67;24.77;;;;;;;;;;4986519;28;20661;-57
2022/03/17 01:54:09;;;;;;;26.57;23.63;;;;;;;;;;4988225;28;20201;-57
2022/03/17 01:56:35;;;;;;;26.17;23.40;;;;;;;;;;4990018;28;20239;-58
2022/03/17 01:59:01;;;;;;;25.60;22.80;;;;;;;;;;4990447;28;20849;-57
2022/03/17 02:01:27;;;;;;;26.03;23.27;;;;;;;;;;4988803;28;20288;-57
2022/03/17 02:03:56;;;;;;;26.63;23.60;;;;;;;;;;4988234;28;20201;-57
2022/03/17 02:06:23;;;;;;;27.17;24.30;;;;;;;;;;4989139;28;20205;-57
2022/03/17 02:08:49;;;;;;;26.17;23.47;;;;;;;;;;4991485;28;20206;-57
2022/03/17 02:14:00;;;;;;;26.70;22.97;;;;;;;;;;4985123;28;20247;-57
2022/03/17 02:16:30;;;;;;;25.27;22.63;;;;;;;;;;4989604;28;20671;-57
2022/03/17 02:18:58;;;;;;;26.97;24.10;;;;;;;;;;4986282;28;20300;-57
2022/03/17 02:21:23;;;;;;;26.97;24.13;;;;;;;;;;4987805;28;20193;-57
2022/03/17 02:26:34;;;;;;;30.10;24.47;;;;;;;;;;4994426;28;20837;-57
2022/03/17 02:29:00;;;;;;;26.57;23.77;;;;;;;;;;4994528;28;20698;-57
2022/03/17 02:31:26;;;;;;;27.40;24.53;;;;;;;;;;4988015;28;20677;-57
2022/03/17 02:33:52;;;;;;;26.63;23.73;;;;;;;;;;4987737;28;20223;-57
2022/03/17 02:36:18;;;;;;;26.47;23.60;;;;;;;;;;4983929;28;20224;-57
2022/03/17 02:38:44;;;;;;;27.67;24.77;;;;;;;;;;4986549;28;20215;-57
2022/03/17 02:41:21;;;;;;;26.80;23.93;;;;;;;;;;4990323;28;20193;-56
2022/03/17 02:43:48;;;;;;;26.70;23.77;;;;;;;;;;4992208;28;20188;-57
2022/03/17 02:46:14;;;;;;;27.17;24.27;;;;;;;;;;4982582;28;22142;-57
2022/03/17 02:48:39;;;;;;;27.20;24.30;;;;;;;;;;4987493;28;20186;-57
2022/03/17 02:51:05;;;;;;;25.90;23.17;;;;;;;;;;4989634;28;20198;-57
2022/03/17 02:53:31;;;;;;;26.90;24.07;;;;;;;;;;4987822;28;20323;-57
2022/03/17 02:55:57;;;;;;;27.47;24.57;;;;;;;;;;4984582;28;20414;-58
2022/03/17 02:58:23;;;;;;;28.27;25.37;;;;;;;;;;4988882;28;20209;-57
2022/03/17 03:00:49;;;;;;;27.70;24.80;;;;;;;;;;4988574;28;20749;-57
2022/03/17 03:03:17;;;;;;;26.70;23.80;;;;;;;;;;4991739;28;20733;-57
2022/03/17 03:05:43;;;;;;;27.63;24.80;;;;;;;;;;4980429;28;20213;-57
2022/03/17 03:08:09;;;;;;;27.87;24.97;;;;;;;;;;4984983;28;20195;-57
2022/03/17 03:10:35;;;;;;;26.57;23.77;;;;;;;;;;4990146;28;20192;-57
2022/03/17 03:13:01;;;;;;;26.73;23.83;;;;;;;;;;4996918;28;20223;-57
2022/03/17 03:15:27;;;;;;;27.90;25.00;;;;;;;;;;4993800;28;20199;-56
2022/03/17 03:17:54;;;;;;;28.60;25.60;;;;;;;;;;4994780;28;20204;-62
2022/03/17 03:20:20;;;;;;;27.20;24.30;;;;;;;;;;4985876;28;20594;-57
2022/03/17 03:22:46;;;;;;;27.90;24.90;;;;;;;;;;4992880;28;20193;-57
2022/03/17 03:25:12;;;;;;;28.50;25.50;;;;;;;;;;4998216;28;20225;-57
2022/03/17 03:27:43;;;;;;;28.77;25.67;;;;;;;;;;4987876;28;20193;-57
2022/03/17 03:30:11;;;;;;;27.77;24.80;;;;;;;;;;4988893;28;20929;-57
2022/03/17 03:32:37;;;;;;;28.53;25.33;;;;;;;;;;4991366;28;20189;-57
2022/03/17 03:37:22;;;;;;;28.90;25.73;;;;;;;;;;4994789;28;20227;-57
2022/03/17 03:37:50;;;;;;;29.67;26.47;;;;;;;;;;4987450;28;20185;-57
2022/03/17 03:40:16;;;;;;;29.47;26.27;;;;;;;;;;4995392;28;20247;-57
2022/03/17 03:42:42;;;;;;;29.27;26.00;;;;;;;;;;4987302;28;20197;-57
2022/03/17 03:45:08;;;;;;;29.90;26.70;;;;;;;;;;4985414;28;20899;-57
2022/03/17 03:47:34;;;;;;;29.20;25.97;;;;;;;;;;4988848;28;20215;-57
2022/03/17 03:50:00;;;;;;;29.17;26.07;;;;;;;;;;4995999;28;20283;-57
2022/03/17 03:52:26;;;;;;;30.30;27.20;;;;;;;;;;4995961;28;20200;-57
2022/03/17 03:54:52;;;;;;;31.30;28.00;;;;;;;;;;5004080;28;20220;-57
2022/03/17 03:57:18;;;;;;;31.30;28.07;;;;;;;;;;5001535;28;20192;-57
2022/03/17 03:59:44;;;;;;;32.77;29.37;;;;;;;;;;4998568;28;20678;-57
2022/03/17 04:02:10;;;;;;;32.57;29.07;;;;;;;;;;5000472;28;20587;-57
2022/03/17 04:04:40;;;;;;;32.20;28.70;;;;;;;;;;4997158;28;20213;-57
2022/03/17 04:07:08;;;;;;;33.77;29.57;;;;;;;;;;5000443;28;20556;-57
2022/03/17 04:09:35;;;;;;;35.53;30.90;;;;;;;;;;4997108;28;20677;-57
2022/03/17 04:12:01;;;;;;;35.80;32.00;;;;;;;;;;4998227;28;20197;-57
2022/03/17 04:14:27;;;;;;;33.57;29.80;;;;;;;;;;4999023;28;20280;-57
2022/03/17 04:16:53;;;;;;;35.33;31.17;;;;;;;;;;4993533;28;20197;-57
2022/03/17 04:19:19;;;;;;;34.57;30.87;;;;;;;;;;4995696;28;20205;-57
2022/03/17 04:21:46;;;;;;;33.23;29.73;;;;;;;;;;4994410;28;20185;-57
2022/03/17 04:24:12;;;;;;;34.83;31.07;;;;;;;;;;4994975;28;20185;-57
2022/03/17 04:26:38;;;;;;;34.13;30.50;;;;;;;;;;4997945;28;20640;-57
2022/03/17 04:29:04;;;;;;;34.70;30.97;;;;;;;;;;4993478;28;20277;-60
2022/03/17 04:31:29;;;;;;;34.80;30.97;;;;;;;;;;4990902;28;20196;-57
2022/03/17 04:33:55;;;;;;;34.70;30.97;;;;;;;;;;4998582;28;20212;-58
2022/03/17 04:36:22;;;;;;;34.67;30.90;;;;;;;;;;5000475;28;20201;-58
2022/03/17 04:38:48;;;;;;;35.77;30.87;;;;;;;;;;5000202;28;20277;-58
2022/03/17 04:41:14;;;;;;;34.63;29.90;;;;;;;;;;4997410;28;20208;-58
2022/03/17 04:43:39;;;;;;;33.90;30.30;;;;;;;;;;4999918;28;20194;-58
2022/03/17 04:46:09;;;;;;;36.67;31.33;;;;;;;;;;4994178;28;20701;-57
2022/03/17 04:48:35;;;;;;;33.53;29.93;;;;;;;;;;4993400;28;20196;-58
2022/03/17 04:51:01;;;;;;;34.23;29.87;;;;;;;;;;4989404;28;20211;-58
2022/03/17 04:53:27;;;;;;;34.93;30.93;;;;;;;;;;4993508;28;20193;-59
2022/03/17 04:55:53;;;;;;;36.40;30.20;;;;;;;;;;4989083;28;21387;-58
2022/03/17 04:58:19;;;;;;;36.30;31.60;;;;;;;;;;4993232;28;20262;-58
2022/03/17 05:00:45;;;;;;;37.10;30.63;;;;;;;;;;4999723;28;20208;-58
2022/03/17 05:03:11;;;;;;;38.53;30.33;;;;;;;;;;4992552;28;20221;-58
2022/03/17 05:05:37;;;;;;;33.23;29.17;;;;;;;;;;4996382;28;20215;-58
2022/03/17 05:08:04;;;;;;;34.33;30.63;;;;;;;;;;4994413;28;20193;-58
2022/03/17 05:10:30;;;;;;;34.73;29.87;;;;;;;;;;4999246;28;20216;-58
2022/03/17 05:12:56;;;;;;;35.17;31.33;;;;;;;;;;5004569;28;20780;-57
2022/03/17 05:15:22;;;;;;;34.50;29.47;;;;;;;;;;5004101;28;20771;-58
2022/03/17 05:17:48;;;;;;;35.43;30.33;;;;;;;;;;5002877;28;20628;-58
2022/03/17 05:20:14;;;;;;;36.53;30.53;;;;;;;;;;4997420;28;20196;-58
2022/03/17 05:22:41;;;;;;;36.80;31.10;;;;;;;;;;4999652;28;20554;-58
2022/03/17 05:25:08;;;;;;;35.83;29.97;;;;;;;;;;5005472;28;20815;-58
2022/03/17 05:27:43;;;;;;;37.70;30.67;;;;;;;;;;4995283;28;20326;-59
2022/03/17 05:30:09;;;;;;;36.50;29.90;;;;;;;;;;5003259;28;20196;-59
2022/03/17 05:32:35;;;;;;;39.30;31.13;;;;;;;;;;5003988;28;20220;-58
2022/03/17 05:35:01;;;;;;;36.57;28.83;;;;;;;;;;5002313;28;20415;-58
2022/03/17 05:37:27;;;;;;;38.93;30.70;;;;;;;;;;5005519;28;20221;-59
2022/03/17 05:39:53;;;;;;;42.03;29.90;;;;;;;;;;5005192;28;20220;-59
2022/03/17 05:42:19;;;;;;;33.70;27.77;;;;;;;;;;5000000;28;20189;-59
2022/03/17 05:44:45;;;;;;;33.23;27.17;;;;;;;;;;4994101;28;20258;-58
2022/03/17 05:47:11;;;;;;;32.67;26.47;;;;;;;;;;4997064;28;20535;-58
2022/03/17 05:49:37;;;;;;;30.10;25.23;;;;;;;;;;4999912;28;20220;-59
2022/03/17 05:52:04;;;;;;;27.13;24.17;;;;;;;;;;5002429;28;20541;-59
2022/03/17 05:54:30;;;;;;;26.10;22.37;;;;;;;;;;5006127;28;20289;-58
2022/03/17 05:56:56;;;;;;;27.90;22.97;;;;;;;;;;5003810;28;20205;-59
2022/03/17 05:59:22;;;;;;;25.47;22.60;;;;;;;;;;4999023;28;20217;-58
2022/03/17 06:01:48;;;;;;;25.63;22.13;;;;;;;;;;4998888;28;20721;-58
2022/03/17 06:04:14;;;;;;;25.87;22.33;;;;;;;;;;4999979;28;20215;-59
2022/03/17 06:06:39;;;;;;;26.33;22.23;;;;;;;;;;5000470;28;21344;-58
2022/03/17 06:09:05;;;;;;;26.83;22.87;;;;;;;;;;4992440;28;20200;-58
2022/03/17 06:11:32;;;;;;;26.43;23.00;;;;;;;;;;4992029;28;20203;-59
2022/03/17 06:13:59;;;;;;;28.17;23.80;;;;;;;;;;5003182;28;20213;-58
2022/03/17 06:16:25;;;;;;;25.93;21.80;;;;;;;;;;4989609;28;20827;-58
2022/03/17 06:18:51;;;;;;;23.27;20.60;;;;;;;;;;5001524;28;20273;-57
2022/03/17 06:21:17;;;;;;;26.20;21.30;;;;;;;;;;4999092;28;20189;-58
2022/03/17 06:23:43;;;;;;;27.73;21.73;;;;;;;;;;5004238;28;20217;-58
2022/03/17 06:26:09;;;;;;;26.17;22.33;;;;;;;;;;5013518;28;20316;-59
2022/03/17 06:28:35;;;;;;;27.73;23.20;;;;;;;;;;5013607;28;20201;-58
2022/03/17 06:31:01;;;;;;;25.17;21.10;;;;;;;;;;5009328;28;20197;-58
2022/03/17 06:33:30;;;;;;;26.60;20.97;;;;;;;;;;4995214;28;20320;-59
2022/03/17 06:35:56;;;;;;;23.10;19.83;;;;;;;;;;5011527;28;20193;-58
2022/03/17 06:38:22;;;;;;;25.03;20.93;;;;;;;;;;5009165;28;20581;-59
2022/03/17 06:40:48;;;;;;;25.07;20.00;;;;;;;;;;5009441;28;20436;-59
2022/03/17 06:43:17;;;;;;;21.37;19.13;;;;;;;;;;5011280;28;20228;-58
2022/03/17 06:45:44;;;;;;;22.47;19.03;;;;;;;;;;5011276;28;20601;-59
2022/03/17 06:48:10;;;;;;;23.33;19.23;;;;;;;;;;5008793;28;20185;-58
2022/03/17 06:50:36;;;;;;;24.80;19.43;;;;;;;;;;5004018;28;20706;-58
2022/03/17 06:53:02;;;;;;;21.60;18.80;;;;;;;;;;5007595;28;20258;-58
2022/03/17 06:55:28;;;;;;;19.77;17.63;;;;;;;;;;5009369;28;20197;-58
2022/03/17 06:57:54;;;;;;;19.93;17.50;;;;;;;;;;5010863;28;20196;-59
2022/03/17 07:00:20;;;;;;;19.87;17.23;;;;;;;;;;5006575;28;20190;-59
2022/03/17 07:02:46;;;;;;;19.17;16.73;;;;;;;;;;5011459;28;20188;-59
2022/03/17 07:05:12;;;;;;;21.37;16.70;;;;;;;;;;5011278;28;20573;-58
2022/03/17 07:07:38;;;;;;;22.77;17.43;;;;;;;;;;5012036;28;20785;-58
2022/03/17 07:10:08;;;;;;;19.43;16.87;;;;;;;;;;5007408;28;20629;-58
2022/03/17 07:12:37;;;;;;;19.50;16.43;;;;;;;;;;5011259;28;20615;-57
2022/03/17 07:15:03;;;;;;;20.40;16.00;;;;;;;;;;5010126;28;20514;-58
2022/03/17 07:17:34;;;;;;;17.80;15.67;;;;;;;;;;5009431;28;20185;-58
2022/03/17 07:20:03;;;;;;;18.23;14.90;;;;;;;;;;5012215;28;20225;-59
2022/03/17 07:22:29;;;;;;;19.47;15.10;;;;;;;;;;5011637;28;20197;-58
2022/03/17 07:24:55;;;;;;;16.73;14.30;;;;;;;;;;5009657;28;20721;-59
2022/03/17 07:27:21;;;;;;;18.60;14.50;;;;;;;;;;5009794;28;20284;-58
2022/03/17 07:29:48;;;;;;;15.13;13.53;;;;;;;;;;5018399;28;20223;-58
2022/03/17 07:32:14;;;;;;;13.93;12.37;;;;;;;;;;5007902;28;20188;-58
2022/03/17 07:34:40;;;;;;;14.83;12.10;;;;;;;;;;5008159;28;20198;-58
2022/03/17 07:37:06;;;;;;;14.30;11.53;;;;;;;;;;5011520;28;20192;-58
2022/03/17 07:39:32;;;;;;;14.07;11.17;;;;;;;;;;5006458;28;20319;-59
2022/03/17 07:41:58;;;;;;;12.77;10.77;;;;;;;;;;5007371;28;20673;-58
2022/03/17 07:44:24;;;;;;;14.17;11.40;;;;;;;;;;5008698;28;20686;-58
2022/03/17 07:46:49;;;;;;;13.23;11.47;;;;;;;;;;5007775;28;20192;-59
2022/03/17 07:49:16;;;;;;;12.17;10.53;;;;;;;;;;5009364;28;21271;-59
2022/03/17 07:51:42;;;;;;;13.63;11.13;;;;;;;;;;5009375;28;20194;-58
2022/03/17 07:54:08;;;;;;;13.30;11.87;;;;;;;;;;5011726;28;20244;-58
2022/03/17 07:56:34;;;;;;;13.60;10.90;;;;;;;;;;5006307;28;20287;-58
2022/03/17 07:59:00;;;;;;;13.97;11.43;;;;;;;;;;5008473;28;20670;-58
2022/03/17 08:01:26;;;;;;;16.20;11.93;;;;;;;;;;5006445;28;20196;-58
2022/03/17 08:03:53;;;;;;;14.50;11.00;;;;;;;;;;5011775;28;20185;-58
2022/03/17 08:06:19;;;;;;;15.53;11.47;;;;;;;;;;5013444;28;20208;-58
2022/03/17 08:08:46;;;;;;;17.20;11.33;;;;;;;;;;5014421;28;20286;-58
2022/03/17 08:11:12;;;;;;;15.23;12.37;;;;;;;;;;5012372;28;20193;-58
2022/03/17 08:13:38;;;;;;;13.07;11.67;;;;;;;;;;5011359;28;20684;-58
2022/03/17 08:16:04;;;;;;;12.93;11.03;;;;;;;;;;5010026;28;20625;-58
2022/03/17 08:18:32;;;;;;;15.73;11.07;;;;;;;;;;5012595;28;20679;-59
2022/03/17 08:20:58;;;;;;;17.33;11.60;;;;;;;;;;5010803;28;20189;-58
2022/03/17 08:23:24;;;;;;;12.00;10.73;;;;;;;;;;5011221;28;20609;-59
2022/03/17 08:25:50;;;;;;;15.67;10.83;;;;;;;;;;5010432;28;20226;-58
2022/03/17 08:28:17;;;;;;;13.33;10.70;;;;;;;;;;5010641;28;20213;-59
2022/03/17 08:30:43;;;;;;;12.13;10.17;;;;;;;;;;5012167;28;20235;-58
2022/03/17 08:33:09;;;;;;;10.93;9.73;;;;;;;;;;5014429;28;20547;-58
2022/03/17 08:35:35;;;;;;;12.47;9.63;;;;;;;;;;5009585;28;20206;-58
2022/03/17 08:38:01;;;;;;;10.80;9.00;;;;;;;;;;5005543;28;20197;-58
2022/03/17 08:40:27;;;;;;;10.40;8.53;;;;;;;;;;5010167;28;20189;-59
2022/03/17 08:42:53;;;;;;;16.10;9.10;;;;;;;;;;5010209;28;20575;-58
2022/03/17 08:50:48;;;;;;;12.30;7.53;;;;;;;;;;5012938;28;20236;-59
2022/03/17 08:53:14;;;;;;;12.23;7.77;;;;;;;;;;5013183;28;20212;-59
2022/03/17 08:55:40;;;;;;;11.57;7.50;;;;;;;;;;5009227;28;20184;-59
2022/03/17 08:58:06;;;;;;;9.20;6.90;;;;;;;;;;5011196;28;20189;-58
2022/03/17 09:00:34;;;;;;;12.37;6.57;;;;;;;;;;5009225;28;20204;-58
2022/03/17 09:03:03;;;;;;;8.87;6.40;;;;;;;;;;5009326;28;20200;-58
2022/03/17 09:05:33;;;;;;;8.83;6.23;;;;;;;;;;5000032;28;20303;-58
2022/03/17 09:07:59;;;;;;;8.83;6.13;;;;;;;;;;5010904;28;20212;-58
2022/03/17 09:10:25;;;;;;;7.87;6.23;;;;;;;;;;5009826;28;20663;-59
2022/03/17 09:12:55;;;;;;;8.33;5.73;;;;;;;;;;5009606;28;20562;-59
2022/03/17 09:15:22;;;;;;;9.03;5.70;;;;;;;;;;5009970;28;20323;-59
2022/03/17 09:17:48;;;;;;;8.83;5.63;;;;;;;;;;5010166;28;20704;-59
2022/03/17 09:20:15;;;;;;;9.10;5.30;;;;;;;;;;5008864;28;20212;-58
2022/03/17 09:22:44;;;;;;;8.00;5.20;;;;;;;;;;5010674;28;20189;-58
2022/03/17 09:25:11;;;;;;;7.17;5.03;;;;;;;;;;5014453;28;20244;-58
2022/03/17 09:27:37;;;;;;;9.20;5.30;;;;;;;;;;5019324;28;20276;-59
2022/03/17 09:30:03;;;;;;;8.33;5.00;;;;;;;;;;5013147;28;20204;-58
2022/03/17 09:32:29;;;;;;;7.20;4.70;;;;;;;;;;5007996;28;20190;-59
2022/03/17 09:34:56;;;;;;;7.03;5.27;;;;;;;;;;5011027;28;20259;-58
2022/03/17 09:37:22;;;;;;;8.20;4.53;;;;;;;;;;5009436;28;20186;-59
2022/03/17 09:39:49;;;;;;;6.63;4.73;;;;;;;;;;5006899;28;20832;-58
2022/03/17 09:42:15;;;;;;;6.33;4.47;;;;;;;;;;5009669;28;20211;-59
2022/03/17 09:44:42;;;;;;;7.43;4.60;;;;;;;;;;5010454;28;20181;-58
2022/03/17 09:47:11;;;;;;;7.13;4.50;;;;;;;;;;5011211;28;20198;-58
2022/03/17 09:49:40;;;;;;;5.43;4.90;;;;;;;;;;5007913;28;20193;-58
2022/03/17 09:52:12;;;;;;;9.73;4.70;;;;;;;;;;5010537;28;20235;-58
2022/03/17 09:54:38;;;;;;;7.50;4.70;;;;;;;;;;5011744;28;20189;-59
2022/03/17 09:57:04;;;;;;;6.50;4.60;;;;;;;;;;5009645;28;20193;-59
2022/03/17 09:59:30;;;;;;;5.27;4.77;;;;;;;;;;5008901;28;20231;-59
2022/03/17 10:01:59;;;;;;;6.43;4.93;;;;;;;;;;5008201;28;20189;-58
2022/03/17 10:04:25;;;;;;;7.07;4.80;;;;;;;;;;5007089;28;20675;-58
2022/03/17 10:06:53;;;;;;;9.03;4.60;;;;;;;;;;5011082;28;20764;-58
2022/03/17 10:09:19;;;;;;;6.57;4.60;;;;;;;;;;5007444;28;21646;-58
2022/03/17 10:11:45;;;;;;;6.50;4.53;;;;;;;;;;5011276;28;20201;-58
2022/03/17 10:14:11;;;;;;;5.63;3.73;;;;;;;;;;5006834;28;20678;-58
2022/03/17 10:16:37;;;;;;;5.43;3.50;;;;;;;;;;5002639;28;22065;-59
2022/03/17 10:19:08;;;;;;;5.73;3.20;;;;;;;;;;5004256;28;20295;-59
2022/03/17 10:21:34;;;;;;;6.40;3.63;;;;;;;;;;5010206;28;20201;-58
2022/03/17 10:24:04;;;;;;;5.77;3.83;;;;;;;;;;5009212;28;20201;-59
2022/03/17 10:26:37;;;;;;;7.27;3.50;;;;;;;;;;5010848;28;20255;-58
2022/03/17 10:29:23;;;;;;;6.53;3.17;;;;;;;;;;5008202;28;20197;-58
2022/03/17 10:32:01;;;;;;;6.20;3.37;;;;;;;;;;5005003;28;20236;-58
2022/03/17 10:34:30;;;;;;;5.83;3.30;;;;;;;;;;5008694;28;20247;-58
2022/03/17 10:37:07;;;;;;;7.53;3.17;;;;;;;;;;5006591;28;20264;-59
2022/03/17 10:39:36;;;;;;;7.80;3.00;;;;;;;;;;5007216;28;20213;-59
2022/03/17 10:42:09;;;;;;;5.73;2.50;;;;;;;;;;5005024;28;20316;-58
2022/03/17 10:44:35;;;;;;;5.00;2.63;;;;;;;;;;5011325;28;20265;-59
2022/03/17 10:47:01;;;;;;;5.60;2.90;;;;;;;;;;5010651;28;20277;-58
2022/03/17 10:49:28;;;;;;;4.27;2.47;;;;;;;;;;5015337;28;20561;-58
2022/03/17 10:51:54;;;;;;;6.03;2.50;;;;;;;;;;5013505;28;20599;-59
2022/03/17 10:54:20;;;;;;;5.37;2.20;;;;;;;;;;5013936;28;20190;-58
2022/03/17 10:57:05;;;;;;;4.07;2.50;;;;;;;;;;5015788;28;20720;-58
2022/03/17 10:59:52;;;;;;;4.37;2.13;;;;;;;;;;5011996;28;20717;-58
2022/03/17 11:02:20;;;;;;;5.17;2.33;;;;;;;;;;5015015;28;20216;-58
2022/03/17 11:04:47;;;;;;;9.37;2.60;;;;;;;;;;5014385;28;21295;-59
2022/03/17 11:07:14;;;;;;;6.27;2.60;;;;;;;;;;5014354;28;20651;-58
2022/03/17 11:09:40;;;;;;;4.63;2.00;;;;;;;;;;5014948;28;20259;-58
2022/03/17 11:12:07;;;;;;;6.93;2.00;;;;;;;;;;5012692;28;20190;-58
2022/03/17 11:14:34;;;;;;;6.23;2.37;;;;;;;;;;5014711;28;20207;-58
2022/03/17 11:17:00;;;;;;;4.07;2.10;;;;;;;;;;5012243;28;20200;-58
2022/03/17 11:19:25;;;;;;;5.03;2.23;;;;;;;;;;5008127;28;20212;-58
2022/03/17 11:22:05;;;;;;;8.80;2.10;;;;;;;;;;4994484;28;20187;-58
2022/03/17 11:24:31;;;;;;;3.87;1.73;;;;;;;;;;5013477;28;20221;-59
2022/03/17 11:27:10;;;;;;;4.53;2.00;;;;;;;;;;5010141;28;21199;-58
2022/03/17 11:29:40;;;;;;;4.77;2.20;;;;;;;;;;5009994;28;20197;-58
2022/03/17 11:32:09;;;;;;;5.77;2.20;;;;;;;;;;5005295;28;20251;-58
2022/03/17 11:34:47;;;;;;;6.37;1.90;;;;;;;;;;5010045;28;20204;-59
2022/03/17 11:37:19;;;;;;;6.33;2.57;;;;;;;;;;5006823;28;20197;-58
2022/03/17 11:39:48;;;;;;;6.80;2.40;;;;;;;;;;5010825;28;20220;-59
2022/03/17 11:42:30;;;;;;;6.63;2.17;;;;;;;;;;5018933;28;20220;-58
2022/03/17 11:45:02;;;;;;;3.90;2.03;;;;;;;;;;5017578;28;20907;-58
2022/03/17 11:47:28;;;;;;;8.33;2.77;;;;;;;;;;5012153;28;20280;-58
2022/03/17 11:49:54;;;;;;;6.27;2.10;;;;;;;;;;5014438;28;20798;-58
2022/03/17 11:52:21;;;;;;;7.17;2.37;;;;;;;;;;5017146;28;20233;-59
2022/03/17 11:54:47;;;;;;;6.50;2.50;;;;;;;;;;5019085;28;20196;-59
2022/03/17 11:57:14;;;;;;;6.73;2.20;;;;;;;;;;5017443;28;20272;-58
2022/03/17 11:59:54;;;;;;;6.40;2.30;;;;;;;;;;5019903;28;20420;-58
2022/03/17 12:02:22;;;;;;;7.23;2.27;;;;;;;;;;5014767;28;20283;-58
2022/03/17 12:04:51;;;;;;;7.50;2.37;;;;;;;;;;5014813;28;20217;-58
2022/03/17 12:07:18;;;;;;;7.87;2.33;;;;;;;;;;5016852;28;20475;-58
2022/03/17 12:09:45;;;;;;;6.10;2.97;;;;;;;;;;5017505;28;20654;-59
2022/03/17 12:12:18;;;;;;;6.17;3.10;;;;;;;;;;5012382;28;20215;-58
2022/03/17 12:14:47;;;;;;;6.87;3.20;;;;;;;;;;5016298;28;20240;-58
2022/03/17 12:17:13;;;;;;;6.80;2.90;;;;;;;;;;5017557;28;20603;-58
2022/03/17 12:19:40;;;;;;;6.13;3.10;;;;;;;;;;5016834;28;20316;-58
2022/03/17 12:22:21;;;;;;;4.70;2.97;;;;;;;;;;5008222;28;20202;-58
2022/03/17 12:25:10;;;;;;;6.47;3.13;;;;;;;;;;5007263;28;20263;-58
2022/03/17 12:27:36;;;;;;;8.13;3.50;;;;;;;;;;5001632;28;20283;-58
2022/03/17 12:30:11;;;;;;;4.23;2.90;;;;;;;;;;5011830;28;20701;-59
2022/03/17 12:32:41;;;;;;;7.07;3.30;;;;;;;;;;5010694;28;20896;-58
2022/03/17 12:35:08;;;;;;;6.83;3.37;;;;;;;;;;5010755;28;20224;-58
2022/03/17 12:37:35;;;;;;;7.77;3.73;;;;;;;;;;5012764;28;20193;-58
2022/03/17 12:40:04;;;;;;;5.53;3.20;;;;;;;;;;5010626;28;20677;-58
2022/03/17 12:42:31;;;;;;;7.20;3.40;;;;;;;;;;5010100;28;20663;-59
2022/03/17 12:44:59;;;;;;;6.40;3.30;;;;;;;;;;5011920;28;20184;-59
2022/03/17 12:47:26;;;;;;;6.60;3.43;;;;;;;;;;5011861;28;20192;-59
2022/03/17 12:49:52;;;;;;;7.57;3.07;;;;;;;;;;5011372;28;20276;-59
2022/03/17 12:52:21;;;;;;;6.90;3.17;;;;;;;;;;5012537;28;20908;-59
2022/03/17 12:54:50;;;;;;;7.17;3.50;;;;;;;;;;5009474;28;20185;-59
2022/03/17 12:57:16;;;;;;;9.03;3.63;;;;;;;;;;5009350;28;20791;-58
2022/03/17 12:59:42;;;;;;;7.93;3.40;;;;;;;;;;5007937;28;20206;-59
2022/03/17 13:02:08;;;;;;;5.40;3.00;;;;;;;;;;5008105;28;20841;-59
2022/03/17 13:04:39;;;;;;;6.03;2.90;;;;;;;;;;5009867;28;25549;-59
2022/03/17 13:07:09;;;;;;;6.87;2.83;;;;;;;;;;5012792;28;20840;-59
2022/03/17 13:09:35;;;;;;;10.17;3.13;;;;;;;;;;5010962;28;20186;-59
2022/03/17 13:14:48;;;;;;;6.93;3.13;;;;;;;;;;5007542;28;20223;-59
2022/03/17 13:17:16;;;;;;;6.07;3.50;;;;;;;;;;5002559;28;21258;-58
2022/03/17 13:19:45;;;;;;;6.53;3.20;;;;;;;;;;5011911;28;20260;-59
2022/03/17 13:22:11;;;;;;;5.60;2.80;;;;;;;;;;5007421;28;20193;-58
2022/03/17 13:24:37;;;;;;;6.97;3.07;;;;;;;;;;5003168;28;20240;-59
2022/03/17 13:27:03;;;;;;;8.03;3.43;;;;;;;;;;5013498;28;20678;-59
2022/03/17 13:29:31;;;;;;;7.90;3.33;;;;;;;;;;5006107;28;20189;-59
2022/03/17 13:31:57;;;;;;;8.23;3.30;;;;;;;;;;5001037;28;20232;-59
2022/03/17 13:34:30;;;;;;;5.57;2.90;;;;;;;;;;5008424;28;20299;-60
2022/03/17 13:37:00;;;;;;;8.30;3.40;;;;;;;;;;5005240;28;20193;-60
2022/03/17 13:39:32;;;;;;;6.07;3.10;;;;;;;;;;5008956;28;20205;-59
2022/03/17 13:42:03;;;;;;;6.30;3.23;;;;;;;;;;5005875;28;20227;-60
2022/03/17 13:44:48;;;;;;;8.37;3.60;;;;;;;;;;5005590;28;20271;-60
2022/03/17 13:47:19;;;;;;;7.97;3.17;;;;;;;;;;5007925;28;20211;-59
2022/03/17 13:50:03;;;;;;;11.77;3.50;;;;;;;;;;5010100;28;20212;-60
2022/03/17 13:52:29;;;;;;;6.87;3.60;;;;;;;;;;5010679;28;20621;-59
2022/03/17 13:54:56;;;;;;;7.67;3.53;;;;;;;;;;5011650;28;20197;-60
2022/03/17 13:57:22;;;;;;;7.67;3.37;;;;;;;;;;5017665;28;20246;-60
2022/03/17 13:59:48;;;;;;;10.53;3.87;;;;;;;;;;5008116;28;20208;-59
2022/03/17 14:02:14;;;;;;;6.80;3.50;;;;;;;;;;5007939;28;20196;-59
2022/03/17 14:04:56;;;;;;;9.40;3.33;;;;;;;;;;5011691;28;20407;-59
2022/03/17 14:07:22;;;;;;;12.10;3.33;;;;;;;;;;5011549;28;20211;-59
2022/03/17 14:09:48;;;;;;;9.87;3.20;;;;;;;;;;5011086;28;20225;-60
2022/03/17 14:12:14;;;;;;;14.77;3.83;;;;;;;;;;5002826;28;20670;-59
2022/03/17 14:14:40;;;;;;;9.10;3.37;;;;;;;;;;4997244;28;20587;-59
2022/03/17 14:17:10;;;;;;;9.30;3.17;;;;;;;;;;4999262;28;21407;-59
2022/03/17 14:19:36;;;;;;;9.57;3.27;;;;;;;;;;5003497;28;20209;-59
2022/03/17 14:24:46;;;;;;;9.73;3.50;;;;;;;;;;5001183;28;20267;-60
2022/03/17 14:27:12;;;;;;;10.83;3.77;;;;;;;;;;4998497;28;20710;-59
2022/03/17 14:29:38;;;;;;;7.33;3.10;;;;;;;;;;5001164;28;20512;-59
2022/03/17 14:32:05;;;;;;;7.77;3.13;;;;;;;;;;5000479;28;20197;-59
2022/03/17 14:34:31;;;;;;;9.27;3.30;;;;;;;;;;5002377;28;20190;-59
2022/03/17 14:36:57;;;;;;;6.03;3.10;;;;;;;;;;5000755;28;20186;-59
2022/03/17 14:39:23;;;;;;;7.03;2.87;;;;;;;;;;5002445;28;20227;-59
2022/03/17 14:41:50;;;;;;;6.20;2.87;;;;;;;;;;4999447;28;20565;-59
2022/03/17 14:44:16;;;;;;;5.33;2.30;;;;;;;;;;5006309;28;20189;-59